Terminal Aerodrome Forecast
Issued by NWS

Home | Current Version | Previous Version | Text Only | Print | Product List | Glossary On
Versions: 1 2 3 4 5 6 7 8 9 10 11 12 13 14 15 16 17 18 19 20 21 22
000
FTUS43 KFGF 270539 AAA
TAFDVL
TAF AMD
KDVL 270539Z 2706/2806 13005KT 4SM BR SCT090
      TEMPO 2707/2709 1/2SM FG VV004
     FM270900 13004KT 1/4SM FG BKN006
     FM271500 14006KT P6SM OVC008
     FM272100 13005KT P6SM SCT045=

USA.gov is the U.S. government's official web portal to all federal, state and local government web resources and services.